Phillips, Texas
Current Conditions -  °F | °C
As of 6:51 AM on Wednesday 22 Oct 2014 (Local Time) from KBGD Reporting Station
Overcast Overcast  
Wind Chill: 63°   Ceiling: 6000
Heat Index: 63°   Visibility: 10mi
Dew Point: 52°   Wind: 10mph
Humidity: 67%   Direction: 190°S
Pressure: 30.08"   Gusts: NA
Location:  35.7207°N, 101.246°W
Report Text: KBGD 221151Z AUTO 19009KT 10SM OVC060 17/11 A3008 RMK AO2 SLP151 60000 T01720111 10172 20150 53004
Loading
Personal Weather Stations






























Interactive Weather Map
Tropical Storm Tracking
New forecast layout! Learn more

10-Day Weather Forecast

Advertisements
Track Severe Weather on mobile